sensor_id;sensor_type;location;lat;lon;timestamp;P1;durP1;ratioP1;P2;durP2;ratioP2
24008;SDS011;12217;50.792;4.372;2023-04-23T00:00:05;38.97;;;31.35;;
24008;SDS011;12217;50.792;4.372;2023-04-23T00:02:36;41.72;;;33.55;;
24008;SDS011;12217;50.792;4.372;2023-04-23T00:05:03;39.42;;;32.65;;
24008;SDS011;12217;50.792;4.372;2023-04-23T00:07:32;37.67;;;31.23;;
24008;SDS011;12217;50.792;4.372;2023-04-23T00:09:59;39.88;;;32.03;;
24008;SDS011;12217;50.792;4.372;2023-04-23T00:12:26;42.30;;;33.05;;
24008;SDS011;12217;50.792;4.372;2023-04-23T00:14:53;37.65;;;30.98;;
24008;SDS011;12217;50.792;4.372;2023-04-23T00:17:18;38.40;;;31.45;;
24008;SDS011;12217;50.792;4.372;2023-04-23T00:19:44;39.58;;;32.03;;
24008;SDS011;12217;50.792;4.372;2023-04-23T00:22:11;38.60;;;31.40;;
24008;SDS011;12217;50.792;4.372;2023-04-23T00:24:38;38.25;;;31.05;;
24008;SDS011;12217;50.792;4.372;2023-04-23T00:27:04;38.97;;;32.03;;
24008;SDS011;12217;50.792;4.372;2023-04-23T00:29:30;40.05;;;31.08;;
24008;SDS011;12217;50.792;4.372;2023-04-23T00:31:56;38.88;;;31.02;;
24008;SDS011;12217;50.792;4.372;2023-04-23T00:34:22;36.42;;;30.02;;
24008;SDS011;12217;50.792;4.372;2023-04-23T00:36:47;38.85;;;30.55;;
24008;SDS011;12217;50.792;4.372;2023-04-23T00:39:13;38.42;;;30.15;;
24008;SDS011;12217;50.792;4.372;2023-04-23T00:41:39;35.47;;;28.90;;
24008;SDS011;12217;50.792;4.372;2023-04-23T00:44:05;32.90;;;26.95;;
24008;SDS011;12217;50.792;4.372;2023-04-23T00:46:32;33.17;;;28.25;;
24008;SDS011;12217;50.792;4.372;2023-04-23T00:48:59;34.10;;;26.95;;
24008;SDS011;12217;50.792;4.372;2023-04-23T00:51:26;31.23;;;26.00;;
24008;SDS011;12217;50.792;4.372;2023-04-23T00:53:53;29.80;;;24.98;;
24008;SDS011;12217;50.792;4.372;2023-04-23T00:56:19;29.55;;;25.40;;
24008;SDS011;12217;50.792;4.372;2023-04-23T00:58:45;30.55;;;25.75;;
24008;SDS011;12217;50.792;4.372;2023-04-23T01:01:11;31.85;;;24.73;;
24008;SDS011;12217;50.792;4.372;2023-04-23T01:03:37;31.85;;;25.65;;
24008;SDS011;12217;50.792;4.372;2023-04-23T01:06:05;29.52;;;25.30;;
24008;SDS011;12217;50.792;4.372;2023-04-23T01:08:31;28.67;;;24.63;;
24008;SDS011;12217;50.792;4.372;2023-04-23T01:10:59;27.92;;;23.63;;
24008;SDS011;12217;50.792;4.372;2023-04-23T01:13:26;29.05;;;23.02;;
24008;SDS011;12217;50.792;4.372;2023-04-23T01:15:53;26.70;;;22.58;;
24008;SDS011;12217;50.792;4.372;2023-04-23T01:18:20;25.30;;;20.83;;
24008;SDS011;12217;50.792;4.372;2023-04-23T01:20:46;22.83;;;19.45;;
24008;SDS011;12217;50.792;4.372;2023-04-23T01:23:13;20.00;;;17.35;;
24008;SDS011;12217;50.792;4.372;2023-04-23T01:25:40;19.83;;;17.40;;
24008;SDS011;12217;50.792;4.372;2023-04-23T01:28:06;18.55;;;16.60;;
24008;SDS011;12217;50.792;4.372;2023-04-23T01:30:32;18.65;;;15.73;;
24008;SDS011;12217;50.792;4.372;2023-04-23T01:32:58;18.25;;;14.93;;
24008;SDS011;12217;50.792;4.372;2023-04-23T01:35:25;16.88;;;14.35;;
24008;SDS011;12217;50.792;4.372;2023-04-23T01:37:50;14.75;;;13.15;;
24008;SDS011;12217;50.792;4.372;2023-04-23T01:40:19;16.98;;;13.48;;
24008;SDS011;12217;50.792;4.372;2023-04-23T01:42:45;15.25;;;12.50;;
24008;SDS011;12217;50.792;4.372;2023-04-23T01:45:11;16.20;;;14.02;;
24008;SDS011;12217;50.792;4.372;2023-04-23T01:47:37;18.42;;;14.13;;
24008;SDS011;12217;50.792;4.372;2023-04-23T01:50:05;17.55;;;14.75;;
24008;SDS011;12217;50.792;4.372;2023-04-23T01:52:31;15.48;;;13.55;;
24008;SDS011;12217;50.792;4.372;2023-04-23T01:54:57;18.02;;;13.35;;
24008;SDS011;12217;50.792;4.372;2023-04-23T01:57:22;15.23;;;13.63;;
24008;SDS011;12217;50.792;4.372;2023-04-23T01:59:50;17.98;;;14.27;;
24008;SDS011;12217;50.792;4.372;2023-04-23T02:02:21;16.63;;;14.38;;
24008;SDS011;12217;50.792;4.372;2023-04-23T02:04:47;17.80;;;14.27;;
24008;SDS011;12217;50.792;4.372;2023-04-23T02:07:16;17.42;;;14.18;;
24008;SDS011;12217;50.792;4.372;2023-04-23T02:09:42;17.48;;;13.95;;
24008;SDS011;12217;50.792;4.372;2023-04-23T02:12:08;17.15;;;13.60;;
24008;SDS011;12217;50.792;4.372;2023-04-23T02:14:33;17.05;;;14.20;;
24008;SDS011;12217;50.792;4.372;2023-04-23T02:16:59;17.30;;;14.50;;
24008;SDS011;12217;50.792;4.372;2023-04-23T02:19:25;16.85;;;14.15;;
24008;SDS011;12217;50.792;4.372;2023-04-23T02:21:51;16.88;;;14.18;;
24008;SDS011;12217;50.792;4.372;2023-04-23T02:24:17;16.23;;;14.57;;
24008;SDS011;12217;50.792;4.372;2023-04-23T02:26:43;16.65;;;14.73;;
24008;SDS011;12217;50.792;4.372;2023-04-23T02:29:08;18.58;;;15.73;;
24008;SDS011;12217;50.792;4.372;2023-04-23T02:31:34;19.20;;;15.95;;
24008;SDS011;12217;50.792;4.372;2023-04-23T02:34:00;19.17;;;16.45;;
24008;SDS011;12217;50.792;4.372;2023-04-23T02:36:25;18.77;;;15.00;;
24008;SDS011;12217;50.792;4.372;2023-04-23T02:38:52;18.70;;;16.73;;
24008;SDS011;12217;50.792;4.372;2023-04-23T02:41:18;17.98;;;15.88;;
24008;SDS011;12217;50.792;4.372;2023-04-23T02:43:43;18.83;;;16.05;;
24008;SDS011;12217;50.792;4.372;2023-04-23T02:46:09;21.08;;;16.35;;
24008;SDS011;12217;50.792;4.372;2023-04-23T02:48:39;20.58;;;16.27;;
24008;SDS011;12217;50.792;4.372;2023-04-23T02:51:06;18.27;;;16.23;;
24008;SDS011;12217;50.792;4.372;2023-04-23T02:53:33;18.45;;;16.48;;
24008;SDS011;12217;50.792;4.372;2023-04-23T02:55:58;18.23;;;15.75;;
24008;SDS011;12217;50.792;4.372;2023-04-23T02:58:25;18.58;;;16.30;;
24008;SDS011;12217;50.792;4.372;2023-04-23T03:00:51;19.05;;;16.30;;
24008;SDS011;12217;50.792;4.372;2023-04-23T03:03:17;20.02;;;17.05;;
24008;SDS011;12217;50.792;4.372;2023-04-23T03:05:42;18.92;;;16.00;;
24008;SDS011;12217;50.792;4.372;2023-04-23T03:08:08;18.15;;;16.00;;
24008;SDS011;12217;50.792;4.372;2023-04-23T03:10:33;18.40;;;16.13;;
24008;SDS011;12217;50.792;4.372;2023-04-23T03:12:59;18.08;;;16.15;;
24008;SDS011;12217;50.792;4.372;2023-04-23T03:15:25;17.17;;;15.25;;
24008;SDS011;12217;50.792;4.372;2023-04-23T03:17:51;19.23;;;15.45;;
24008;SDS011;12217;50.792;4.372;2023-04-23T03:20:18;18.38;;;15.77;;
24008;SDS011;12217;50.792;4.372;2023-04-23T03:22:43;17.40;;;15.50;;
24008;SDS011;12217;50.792;4.372;2023-04-23T03:25:09;20.40;;;15.13;;
24008;SDS011;12217;50.792;4.372;2023-04-23T03:27:37;17.20;;;14.60;;
24008;SDS011;12217;50.792;4.372;2023-04-23T03:30:07;17.17;;;14.23;;
24008;SDS011;12217;50.792;4.372;2023-04-23T03:32:33;18.25;;;15.35;;
24008;SDS011;12217;50.792;4.372;2023-04-23T03:35:00;19.92;;;15.10;;
24008;SDS011;12217;50.792;4.372;2023-04-23T03:37:26;17.38;;;14.57;;
24008;SDS011;12217;50.792;4.372;2023-04-23T03:39:52;20.38;;;14.70;;
24008;SDS011;12217;50.792;4.372;2023-04-23T03:42:17;17.17;;;14.98;;
24008;SDS011;12217;50.792;4.372;2023-04-23T03:44:43;16.67;;;14.65;;
24008;SDS011;12217;50.792;4.372;2023-04-23T03:47:08;18.77;;;14.48;;
24008;SDS011;12217;50.792;4.372;2023-04-23T03:49:36;16.90;;;14.43;;
24008;SDS011;12217;50.792;4.372;2023-04-23T03:52:02;18.63;;;14.10;;
24008;SDS011;12217;50.792;4.372;2023-04-23T03:54:28;17.80;;;13.77;;
24008;SDS011;12217;50.792;4.372;2023-04-23T03:56:53;15.60;;;13.07;;
24008;SDS011;12217;50.792;4.372;2023-04-23T03:59:19;16.85;;;14.15;;
24008;SDS011;12217;50.792;4.372;2023-04-23T04:01:45;17.50;;;13.57;;
24008;SDS011;12217;50.792;4.372;2023-04-23T04:04:12;17.45;;;14.43;;
24008;SDS011;12217;50.792;4.372;2023-04-23T04:06:39;19.23;;;14.73;;
24008;SDS011;12217;50.792;4.372;2023-04-23T04:09:04;17.38;;;14.63;;
24008;SDS011;12217;50.792;4.372;2023-04-23T04:11:32;16.55;;;13.80;;
24008;SDS011;12217;50.792;4.372;2023-04-23T04:13:58;20.33;;;14.38;;
24008;SDS011;12217;50.792;4.372;2023-04-23T04:16:24;19.30;;;15.65;;
24008;SDS011;12217;50.792;4.372;2023-04-23T04:18:49;16.58;;;14.00;;
24008;SDS011;12217;50.792;4.372;2023-04-23T04:21:15;15.95;;;13.55;;
24008;SDS011;12217;50.792;4.372;2023-04-23T04:23:43;16.38;;;13.80;;
24008;SDS011;12217;50.792;4.372;2023-04-23T04:26:09;19.77;;;13.73;;
24008;SDS011;12217;50.792;4.372;2023-04-23T04:28:35;18.75;;;13.80;;
24008;SDS011;12217;50.792;4.372;2023-04-23T04:31:01;17.52;;;13.02;;
24008;SDS011;12217;50.792;4.372;2023-04-23T04:33:31;16.40;;;13.13;;
24008;SDS011;12217;50.792;4.372;2023-04-23T04:35:57;18.23;;;13.32;;
24008;SDS011;12217;50.792;4.372;2023-04-23T04:38:24;17.60;;;12.80;;
24008;SDS011;12217;50.792;4.372;2023-04-23T04:40:50;16.98;;;12.50;;
24008;SDS011;12217;50.792;4.372;2023-04-23T04:43:19;17.95;;;12.43;;
24008;SDS011;12217;50.792;4.372;2023-04-23T04:45:45;17.75;;;12.50;;
24008;SDS011;12217;50.792;4.372;2023-04-23T04:48:10;15.48;;;10.77;;
24008;SDS011;12217;50.792;4.372;2023-04-23T04:50:36;16.10;;;11.18;;
24008;SDS011;12217;50.792;4.372;2023-04-23T04:53:01;15.57;;;11.10;;
24008;SDS011;12217;50.792;4.372;2023-04-23T04:55:27;15.07;;;10.68;;
24008;SDS011;12217;50.792;4.372;2023-04-23T04:57:53;15.02;;;10.55;;
24008;SDS011;12217;50.792;4.372;2023-04-23T05:02:48;15.70;;;10.18;;
24008;SDS011;12217;50.792;4.372;2023-04-23T05:05:15;13.18;;;9.45;;
24008;SDS011;12217;50.792;4.372;2023-04-23T05:07:41;12.65;;;10.05;;
24008;SDS011;12217;50.792;4.372;2023-04-23T05:10:06;13.38;;;9.30;;
24008;SDS011;12217;50.792;4.372;2023-04-23T05:12:32;14.13;;;9.80;;
24008;SDS011;12217;50.792;4.372;2023-04-23T05:14:58;17.05;;;9.82;;
24008;SDS011;12217;50.792;4.372;2023-04-23T05:17:23;12.45;;;9.18;;
24008;SDS011;12217;50.792;4.372;2023-04-23T05:19:49;14.13;;;9.10;;
24008;SDS011;12217;50.792;4.372;2023-04-23T05:22:15;14.98;;;8.90;;
24008;SDS011;12217;50.792;4.372;2023-04-23T05:24:42;12.18;;;8.57;;
24008;SDS011;12217;50.792;4.372;2023-04-23T05:27:09;10.05;;;7.93;;
24008;SDS011;12217;50.792;4.372;2023-04-23T05:29:35;17.00;;;8.80;;
24008;SDS011;12217;50.792;4.372;2023-04-23T05:32:00;16.65;;;7.88;;
24008;SDS011;12217;50.792;4.372;2023-04-23T05:34:26;11.88;;;7.70;;
24008;SDS011;12217;50.792;4.372;2023-04-23T05:36:51;13.77;;;8.32;;
24008;SDS011;12217;50.792;4.372;2023-04-23T05:39:17;13.27;;;7.30;;
24008;SDS011;12217;50.792;4.372;2023-04-23T05:41:43;14.70;;;7.93;;
24008;SDS011;12217;50.792;4.372;2023-04-23T05:44:08;16.15;;;8.15;;
24008;SDS011;12217;50.792;4.372;2023-04-23T05:46:34;12.93;;;7.63;;
24008;SDS011;12217;50.792;4.372;2023-04-23T05:49:00;11.32;;;7.32;;
24008;SDS011;12217;50.792;4.372;2023-04-23T05:51:25;11.95;;;7.25;;
24008;SDS011;12217;50.792;4.372;2023-04-23T05:53:51;11.02;;;7.50;;
24008;SDS011;12217;50.792;4.372;2023-04-23T05:56:17;15.95;;;8.20;;
24008;SDS011;12217;50.792;4.372;2023-04-23T05:58:42;12.43;;;7.53;;
24008;SDS011;12217;50.792;4.372;2023-04-23T06:01:08;14.10;;;7.68;;
24008;SDS011;12217;50.792;4.372;2023-04-23T06:03:34;12.05;;;7.25;;
24008;SDS011;12217;50.792;4.372;2023-04-23T06:06:01;12.15;;;6.88;;
24008;SDS011;12217;50.792;4.372;2023-04-23T06:08:26;12.25;;;6.57;;
24008;SDS011;12217;50.792;4.372;2023-04-23T06:10:52;12.95;;;6.93;;
24008;SDS011;12217;50.792;4.372;2023-04-23T06:13:19;7.80;;;6.47;;
24008;SDS011;12217;50.792;4.372;2023-04-23T06:15:45;16.40;;;6.20;;
24008;SDS011;12217;50.792;4.372;2023-04-23T06:18:11;12.77;;;6.05;;
24008;SDS011;12217;50.792;4.372;2023-04-23T06:20:37;9.70;;;6.28;;
24008;SDS011;12217;50.792;4.372;2023-04-23T06:23:03;10.52;;;6.53;;
24008;SDS011;12217;50.792;4.372;2023-04-23T06:25:30;11.00;;;6.70;;
24008;SDS011;12217;50.792;4.372;2023-04-23T06:27:56;12.80;;;6.18;;
24008;SDS011;12217;50.792;4.372;2023-04-23T06:30:22;14.38;;;6.13;;
24008;SDS011;12217;50.792;4.372;2023-04-23T06:32:48;9.55;;;5.63;;
24008;SDS011;12217;50.792;4.372;2023-04-23T06:35:14;12.13;;;6.00;;
24008;SDS011;12217;50.792;4.372;2023-04-23T06:37:39;11.15;;;6.30;;
24008;SDS011;12217;50.792;4.372;2023-04-23T06:40:05;13.45;;;5.72;;
24008;SDS011;12217;50.792;4.372;2023-04-23T06:42:31;9.52;;;5.47;;
24008;SDS011;12217;50.792;4.372;2023-04-23T06:44:57;14.45;;;5.95;;
24008;SDS011;12217;50.792;4.372;2023-04-23T06:47:23;11.48;;;5.75;;
24008;SDS011;12217;50.792;4.372;2023-04-23T06:49:49;12.45;;;5.55;;
24008;SDS011;12217;50.792;4.372;2023-04-23T06:52:14;12.07;;;5.97;;
24008;SDS011;12217;50.792;4.372;2023-04-23T06:54:40;13.70;;;5.90;;
24008;SDS011;12217;50.792;4.372;2023-04-23T06:57:06;12.70;;;6.00;;
24008;SDS011;12217;50.792;4.372;2023-04-23T06:59:31;9.60;;;5.45;;
24008;SDS011;12217;50.792;4.372;2023-04-23T07:01:57;10.23;;;5.93;;
24008;SDS011;12217;50.792;4.372;2023-04-23T07:04:22;14.38;;;5.97;;
24008;SDS011;12217;50.792;4.372;2023-04-23T07:06:48;7.93;;;5.10;;
24008;SDS011;12217;50.792;4.372;2023-04-23T07:09:14;10.07;;;5.15;;
24008;SDS011;12217;50.792;4.372;2023-04-23T07:11:39;10.60;;;5.68;;
24008;SDS011;12217;50.792;4.372;2023-04-23T07:14:05;10.30;;;5.00;;
24008;SDS011;12217;50.792;4.372;2023-04-23T07:16:31;10.77;;;5.18;;
24008;SDS011;12217;50.792;4.372;2023-04-23T07:18:58;11.77;;;4.85;;
24008;SDS011;12217;50.792;4.372;2023-04-23T07:21:25;9.32;;;5.22;;
24008;SDS011;12217;50.792;4.372;2023-04-23T07:23:52;12.30;;;5.13;;
24008;SDS011;12217;50.792;4.372;2023-04-23T07:26:18;11.18;;;5.38;;
24008;SDS011;12217;50.792;4.372;2023-04-23T07:28:45;10.60;;;4.43;;
24008;SDS011;12217;50.792;4.372;2023-04-23T07:31:12;9.70;;;5.28;;
24008;SDS011;12217;50.792;4.372;2023-04-23T07:33:38;14.45;;;5.00;;
24008;SDS011;12217;50.792;4.372;2023-04-23T07:36:04;11.70;;;5.10;;
24008;SDS011;12217;50.792;4.372;2023-04-23T07:38:29;13.23;;;4.97;;
24008;SDS011;12217;50.792;4.372;2023-04-23T07:40:55;8.10;;;4.72;;
24008;SDS011;12217;50.792;4.372;2023-04-23T07:43:21;13.63;;;5.57;;
24008;SDS011;12217;50.792;4.372;2023-04-23T07:45:46;12.60;;;4.97;;
24008;SDS011;12217;50.792;4.372;2023-04-23T07:48:12;13.15;;;4.88;;
24008;SDS011;12217;50.792;4.372;2023-04-23T07:50:38;7.72;;;5.40;;
24008;SDS011;12217;50.792;4.372;2023-04-23T07:53:03;9.13;;;4.22;;
24008;SDS011;12217;50.792;4.372;2023-04-23T07:55:29;8.95;;;4.25;;
24008;SDS011;12217;50.792;4.372;2023-04-23T07:57:55;14.98;;;4.80;;
24008;SDS011;12217;50.792;4.372;2023-04-23T08:00:20;10.30;;;4.70;;
24008;SDS011;12217;50.792;4.372;2023-04-23T08:02:46;10.27;;;4.50;;
24008;SDS011;12217;50.792;4.372;2023-04-23T08:05:11;7.65;;;4.28;;
24008;SDS011;12217;50.792;4.372;2023-04-23T08:07:37;11.02;;;3.75;;
24008;SDS011;12217;50.792;4.372;2023-04-23T08:10:03;9.35;;;3.85;;
24008;SDS011;12217;50.792;4.372;2023-04-23T08:12:35;15.38;;;4.53;;
24008;SDS011;12217;50.792;4.372;2023-04-23T08:15:01;10.13;;;3.97;;
24008;SDS011;12217;50.792;4.372;2023-04-23T08:17:27;13.43;;;4.55;;
24008;SDS011;12217;50.792;4.372;2023-04-23T08:19:54;12.60;;;4.50;;
24008;SDS011;12217;50.792;4.372;2023-04-23T08:22:23;10.80;;;3.75;;
24008;SDS011;12217;50.792;4.372;2023-04-23T08:24:51;11.60;;;4.05;;
24008;SDS011;12217;50.792;4.372;2023-04-23T08:27:16;13.95;;;4.32;;
24008;SDS011;12217;50.792;4.372;2023-04-23T08:29:42;9.25;;;3.28;;
24008;SDS011;12217;50.792;4.372;2023-04-23T08:32:08;10.45;;;3.75;;
24008;SDS011;12217;50.792;4.372;2023-04-23T08:34:33;8.57;;;3.22;;
24008;SDS011;12217;50.792;4.372;2023-04-23T08:37:00;13.40;;;3.47;;
24008;SDS011;12217;50.792;4.372;2023-04-23T08:39:25;8.48;;;2.80;;
24008;SDS011;12217;50.792;4.372;2023-04-23T08:41:54;10.60;;;2.88;;
24008;SDS011;12217;50.792;4.372;2023-04-23T08:44:22;9.63;;;3.22;;
24008;SDS011;12217;50.792;4.372;2023-04-23T08:46:49;10.15;;;3.15;;
24008;SDS011;12217;50.792;4.372;2023-04-23T08:49:19;10.32;;;3.20;;
24008;SDS011;12217;50.792;4.372;2023-04-23T08:51:47;9.57;;;3.05;;
24008;SDS011;12217;50.792;4.372;2023-04-23T08:54:17;9.98;;;2.80;;
24008;SDS011;12217;50.792;4.372;2023-04-23T08:56:46;8.93;;;3.13;;
24008;SDS011;12217;50.792;4.372;2023-04-23T08:59:13;10.20;;;3.00;;
24008;SDS011;12217;50.792;4.372;2023-04-23T09:01:41;8.20;;;2.72;;
24008;SDS011;12217;50.792;4.372;2023-04-23T09:04:07;10.43;;;2.90;;
24008;SDS011;12217;50.792;4.372;2023-04-23T09:06:34;12.52;;;2.80;;
24008;SDS011;12217;50.792;4.372;2023-04-23T09:09:00;14.35;;;3.33;;
24008;SDS011;12217;50.792;4.372;2023-04-23T09:11:27;9.45;;;2.83;;
24008;SDS011;12217;50.792;4.372;2023-04-23T09:13:55;10.25;;;3.75;;
24008;SDS011;12217;50.792;4.372;2023-04-23T09:16:21;8.13;;;2.67;;
24008;SDS011;12217;50.792;4.372;2023-04-23T09:18:47;9.10;;;2.83;;
24008;SDS011;12217;50.792;4.372;2023-04-23T09:21:15;8.98;;;2.75;;
24008;SDS011;12217;50.792;4.372;2023-04-23T09:23:41;10.20;;;2.40;;
24008;SDS011;12217;50.792;4.372;2023-04-23T09:26:07;8.60;;;2.60;;
24008;SDS011;12217;50.792;4.372;2023-04-23T09:28:36;8.35;;;2.58;;
24008;SDS011;12217;50.792;4.372;2023-04-23T09:31:05;8.07;;;2.60;;
24008;SDS011;12217;50.792;4.372;2023-04-23T09:33:33;6.72;;;2.75;;
24008;SDS011;12217;50.792;4.372;2023-04-23T09:36:03;9.30;;;2.38;;
24008;SDS011;12217;50.792;4.372;2023-04-23T09:38:33;8.23;;;2.10;;
24008;SDS011;12217;50.792;4.372;2023-04-23T09:41:18;9.10;;;2.35;;
24008;SDS011;12217;50.792;4.372;2023-04-23T09:43:51;10.45;;;2.20;;
24008;SDS011;12217;50.792;4.372;2023-04-23T09:46:17;8.30;;;2.00;;
24008;SDS011;12217;50.792;4.372;2023-04-23T09:48:43;7.10;;;1.95;;
24008;SDS011;12217;50.792;4.372;2023-04-23T09:51:12;7.95;;;2.30;;
24008;SDS011;12217;50.792;4.372;2023-04-23T09:53:40;7.10;;;2.08;;
24008;SDS011;12217;50.792;4.372;2023-04-23T09:56:08;6.25;;;2.10;;
24008;SDS011;12217;50.792;4.372;2023-04-23T09:58:33;9.75;;;2.63;;
24008;SDS011;12217;50.792;4.372;2023-04-23T10:01:06;7.65;;;2.00;;
24008;SDS011;12217;50.792;4.372;2023-04-23T10:03:33;8.32;;;2.03;;
24008;SDS011;12217;50.792;4.372;2023-04-23T10:05:58;6.25;;;2.03;;
24008;SDS011;12217;50.792;4.372;2023-04-23T10:08:25;8.55;;;1.83;;
24008;SDS011;12217;50.792;4.372;2023-04-23T10:10:51;6.93;;;2.15;;
24008;SDS011;12217;50.792;4.372;2023-04-23T10:13:17;10.57;;;2.65;;
24008;SDS011;12217;50.792;4.372;2023-04-23T10:15:44;7.20;;;2.05;;
24008;SDS011;12217;50.792;4.372;2023-04-23T10:18:11;7.60;;;2.03;;
24008;SDS011;12217;50.792;4.372;2023-04-23T10:20:39;7.93;;;1.95;;
24008;SDS011;12217;50.792;4.372;2023-04-23T10:23:06;7.20;;;1.98;;
24008;SDS011;12217;50.792;4.372;2023-04-23T10:25:33;6.50;;;1.80;;
24008;SDS011;12217;50.792;4.372;2023-04-23T10:28:02;8.88;;;2.25;;
24008;SDS011;12217;50.792;4.372;2023-04-23T10:30:28;7.18;;;2.00;;
24008;SDS011;12217;50.792;4.372;2023-04-23T10:32:54;12.02;;;2.33;;
24008;SDS011;12217;50.792;4.372;2023-04-23T10:35:22;10.18;;;2.55;;
24008;SDS011;12217;50.792;4.372;2023-04-23T10:37:48;6.15;;;2.25;;
24008;SDS011;12217;50.792;4.372;2023-04-23T10:40:17;13.27;;;3.25;;
24008;SDS011;12217;50.792;4.372;2023-04-23T10:42:46;10.05;;;2.38;;
24008;SDS011;12217;50.792;4.372;2023-04-23T10:45:14;6.22;;;2.08;;
24008;SDS011;12217;50.792;4.372;2023-04-23T10:47:43;6.07;;;2.30;;
24008;SDS011;12217;50.792;4.372;2023-04-23T10:52:45;5.93;;;1.85;;
24008;SDS011;12217;50.792;4.372;2023-04-23T10:55:19;8.00;;;1.90;;
24008;SDS011;12217;50.792;4.372;2023-04-23T10:57:56;9.97;;;2.17;;
24008;SDS011;12217;50.792;4.372;2023-04-23T11:00:47;7.88;;;1.80;;
24008;SDS011;12217;50.792;4.372;2023-04-23T11:06:00;9.25;;;2.03;;
24008;SDS011;12217;50.792;4.372;2023-04-23T11:08:29;9.40;;;1.65;;
24008;SDS011;12217;50.792;4.372;2023-04-23T11:10:59;8.95;;;1.90;;
24008;SDS011;12217;50.792;4.372;2023-04-23T11:13:26;7.15;;;1.50;;
24008;SDS011;12217;50.792;4.372;2023-04-23T11:21:54;9.73;;;2.40;;
24008;SDS011;12217;50.792;4.372;2023-04-23T11:24:37;6.95;;;1.67;;
24008;SDS011;12217;50.792;4.372;2023-04-23T11:27:06;7.15;;;1.58;;
24008;SDS011;12217;50.792;4.372;2023-04-23T11:29:34;7.30;;;1.95;;
24008;SDS011;12217;50.792;4.372;2023-04-23T11:32:01;7.53;;;1.70;;
24008;SDS011;12217;50.792;4.372;2023-04-23T11:34:29;12.15;;;2.17;;
24008;SDS011;12217;50.792;4.372;2023-04-23T11:36:57;5.07;;;2.00;;
24008;SDS011;12217;50.792;4.372;2023-04-23T11:39:23;7.05;;;1.95;;
24008;SDS011;12217;50.792;4.372;2023-04-23T11:41:49;7.07;;;2.25;;
24008;SDS011;12217;50.792;4.372;2023-04-23T11:44:17;4.85;;;1.80;;
24008;SDS011;12217;50.792;4.372;2023-04-23T11:46:45;9.32;;;2.78;;
24008;SDS011;12217;50.792;4.372;2023-04-23T11:49:12;5.85;;;1.90;;
24008;SDS011;12217;50.792;4.372;2023-04-23T11:51:42;5.18;;;2.10;;
24008;SDS011;12217;50.792;4.372;2023-04-23T11:54:08;6.85;;;2.08;;
24008;SDS011;12217;50.792;4.372;2023-04-23T11:56:35;7.22;;;2.08;;
24008;SDS011;12217;50.792;4.372;2023-04-23T11:59:02;6.13;;;1.90;;
24008;SDS011;12217;50.792;4.372;2023-04-23T12:01:45;6.72;;;1.90;;
24008;SDS011;12217;50.792;4.372;2023-04-23T12:04:13;8.35;;;1.98;;
24008;SDS011;12217;50.792;4.372;2023-04-23T12:06:42;10.70;;;2.78;;
24008;SDS011;12217;50.792;4.372;2023-04-23T12:09:09;6.82;;;2.67;;
24008;SDS011;12217;50.792;4.372;2023-04-23T12:11:36;7.70;;;2.30;;
24008;SDS011;12217;50.792;4.372;2023-04-23T12:14:02;13.15;;;4.38;;
24008;SDS011;12217;50.792;4.372;2023-04-23T12:16:32;7.90;;;2.75;;
24008;SDS011;12217;50.792;4.372;2023-04-23T12:19:06;8.88;;;2.60;;
24008;SDS011;12217;50.792;4.372;2023-04-23T12:21:45;8.15;;;2.42;;
24008;SDS011;12217;50.792;4.372;2023-04-23T12:24:22;9.80;;;2.75;;
24008;SDS011;12217;50.792;4.372;2023-04-23T12:26:52;7.38;;;2.33;;
24008;SDS011;12217;50.792;4.372;2023-04-23T12:29:20;6.75;;;2.80;;
24008;SDS011;12217;50.792;4.372;2023-04-23T12:31:47;9.10;;;3.05;;
24008;SDS011;12217;50.792;4.372;2023-04-23T12:34:13;8.60;;;2.88;;
24008;SDS011;12217;50.792;4.372;2023-04-23T12:36:43;7.25;;;2.45;;
24008;SDS011;12217;50.792;4.372;2023-04-23T12:39:21;8.87;;;2.90;;
24008;SDS011;12217;50.792;4.372;2023-04-23T12:41:50;6.18;;;3.00;;
24008;SDS011;12217;50.792;4.372;2023-04-23T12:44:18;4.60;;;2.67;;
24008;SDS011;12217;50.792;4.372;2023-04-23T12:46:48;10.98;;;3.10;;
24008;SDS011;12217;50.792;4.372;2023-04-23T12:49:14;6.13;;;3.15;;
24008;SDS011;12217;50.792;4.372;2023-04-23T12:51:39;9.52;;;3.58;;
24008;SDS011;12217;50.792;4.372;2023-04-23T12:54:07;11.98;;;3.72;;
24008;SDS011;12217;50.792;4.372;2023-04-23T12:56:32;6.50;;;2.90;;
24008;SDS011;12217;50.792;4.372;2023-04-23T12:59:00;6.32;;;2.72;;
24008;SDS011;12217;50.792;4.372;2023-04-23T13:01:26;7.18;;;3.42;;
24008;SDS011;12217;50.792;4.372;2023-04-23T13:03:52;5.55;;;3.00;;
24008;SDS011;12217;50.792;4.372;2023-04-23T13:06:18;7.07;;;3.08;;
24008;SDS011;12217;50.792;4.372;2023-04-23T13:08:44;5.45;;;3.28;;
24008;SDS011;12217;50.792;4.372;2023-04-23T13:11:09;5.53;;;2.58;;
24008;SDS011;12217;50.792;4.372;2023-04-23T13:13:35;6.40;;;2.97;;
24008;SDS011;12217;50.792;4.372;2023-04-23T13:16:01;5.18;;;2.83;;
24008;SDS011;12217;50.792;4.372;2023-04-23T13:18:27;6.25;;;3.08;;
24008;SDS011;12217;50.792;4.372;2023-04-23T13:20:52;4.57;;;3.22;;
24008;SDS011;12217;50.792;4.372;2023-04-23T13:23:18;6.80;;;2.60;;
24008;SDS011;12217;50.792;4.372;2023-04-23T13:25:44;7.88;;;4.18;;
24008;SDS011;12217;50.792;4.372;2023-04-23T13:28:09;7.90;;;3.88;;
24008;SDS011;12217;50.792;4.372;2023-04-23T13:30:35;4.90;;;3.10;;
24008;SDS011;12217;50.792;4.372;2023-04-23T13:33:01;4.45;;;3.10;;
24008;SDS011;12217;50.792;4.372;2023-04-23T13:35:27;5.57;;;3.28;;
24008;SDS011;12217;50.792;4.372;2023-04-23T13:37:52;6.43;;;3.10;;
24008;SDS011;12217;50.792;4.372;2023-04-23T13:40:18;5.05;;;2.60;;
24008;SDS011;12217;50.792;4.372;2023-04-23T13:42:44;6.70;;;2.70;;
24008;SDS011;12217;50.792;4.372;2023-04-23T13:45:09;5.03;;;3.03;;
24008;SDS011;12217;50.792;4.372;2023-04-23T13:47:35;7.25;;;3.20;;
24008;SDS011;12217;50.792;4.372;2023-04-23T13:50:01;6.03;;;2.90;;
24008;SDS011;12217;50.792;4.372;2023-04-23T13:52:34;5.65;;;3.20;;
24008;SDS011;12217;50.792;4.372;2023-04-23T13:55:01;7.28;;;3.53;;
24008;SDS011;12217;50.792;4.372;2023-04-23T13:57:27;6.60;;;3.60;;
24008;SDS011;12217;50.792;4.372;2023-04-23T13:59:53;5.47;;;3.45;;
24008;SDS011;12217;50.792;4.372;2023-04-23T14:02:19;6.18;;;3.75;;
24008;SDS011;12217;50.792;4.372;2023-04-23T14:04:45;7.07;;;4.88;;
24008;SDS011;12217;50.792;4.372;2023-04-23T14:07:12;5.10;;;3.30;;
24008;SDS011;12217;50.792;4.372;2023-04-23T14:09:37;7.43;;;3.47;;
24008;SDS011;12217;50.792;4.372;2023-04-23T14:12:04;5.72;;;3.10;;
24008;SDS011;12217;50.792;4.372;2023-04-23T14:14:30;6.53;;;3.35;;
24008;SDS011;12217;50.792;4.372;2023-04-23T14:16:56;5.28;;;3.05;;
24008;SDS011;12217;50.792;4.372;2023-04-23T14:19:21;6.18;;;3.45;;
24008;SDS011;12217;50.792;4.372;2023-04-23T14:21:47;4.95;;;3.25;;
24008;SDS011;12217;50.792;4.372;2023-04-23T14:24:16;4.75;;;3.33;;
24008;SDS011;12217;50.792;4.372;2023-04-23T14:26:46;6.40;;;3.00;;
24008;SDS011;12217;50.792;4.372;2023-04-23T14:31:47;6.40;;;2.88;;
24008;SDS011;12217;50.792;4.372;2023-04-23T14:34:12;4.80;;;2.38;;
24008;SDS011;12217;50.792;4.372;2023-04-23T14:36:38;4.35;;;2.50;;
24008;SDS011;12217;50.792;4.372;2023-04-23T14:39:04;3.78;;;2.90;;
24008;SDS011;12217;50.792;4.372;2023-04-23T14:41:33;3.92;;;2.35;;
24008;SDS011;12217;50.792;4.372;2023-04-23T14:44:01;5.45;;;2.70;;
24008;SDS011;12217;50.792;4.372;2023-04-23T14:46:27;3.45;;;2.30;;
24008;SDS011;12217;50.792;4.372;2023-04-23T14:48:53;3.10;;;2.70;;